Time;durP1;ratioP1;P1;durP2;ratioP2;P2;SDS_P1;SDS_P2;PMS_P1;PMS_P2;Temp;Humidity;BMP_temperature;BMP_pressure;BME280_temperature;BME280_humidity;BME280_pressure;Samples;Min_cycle;Max_cycle;Signal;HPM_P1;HPM_P2
2022/11/09 00:01:41;;;;;;;10.50;8.55;;;;;;;8.68;87.07;100467.64;1658741;84;20998;-73
2022/11/09 00:04:07;;;;;;;11.70;8.45;;;;;;;8.71;86.72;100468.53;1694825;83;21219;-72
2022/11/09 00:06:34;;;;;;;9.85;7.92;;;;;;;8.76;86.23;100464.67;1680524;84;20966;-70
2022/11/09 00:09:03;;;;;;;12.73;9.83;;;;;;;8.80;85.71;100469.08;1699881;84;21002;-71
2022/11/09 00:11:30;;;;;;;15.03;10.70;;;;;;;8.83;85.31;100461.92;1681233;84;21541;-73
2022/11/09 00:13:56;;;;;;;15.98;11.00;;;;;;;8.86;84.95;100459.64;1678721;85;21044;-70
2022/11/09 00:16:22;;;;;;;15.03;9.70;;;;;;;8.87;84.69;100456.44;1677123;84;21986;-71
2022/11/09 00:18:50;;;;;;;12.75;9.15;;;;;;;8.86;84.40;100459.64;1678138;84;21114;-77
2022/11/09 00:21:19;;;;;;;11.88;9.55;;;;;;;8.85;84.14;100457.99;1676178;84;21389;-69
2022/11/09 00:23:48;;;;;;;13.30;10.48;;;;;;;8.85;84.03;100464.70;1694669;84;20943;-71
2022/11/09 00:26:17;;;;;;;17.12;12.25;;;;;;;8.83;83.77;100473.47;1680360;84;21042;-68
2022/11/09 00:28:43;;;;;;;13.08;10.58;;;;;;;8.83;83.84;100468.63;1686293;84;21156;-76
2022/11/09 00:31:16;;;;;;;13.80;11.53;;;;;;;8.84;83.63;100467.59;1672054;84;21530;-76
2022/11/09 00:33:52;;;;;;;17.42;11.12;;;;;;;8.84;83.63;100471.62;1686267;84;21606;-77
2022/11/09 00:36:19;;;;;;;12.78;10.68;;;;;;;8.84;83.57;100472.95;1685366;84;21531;-69
2022/11/09 00:38:50;;;;;;;11.60;10.40;;;;;;;8.83;83.39;100470.79;1698723;83;20980;-74
2022/11/09 00:41:18;;;;;;;16.15;11.05;;;;;;;8.81;83.34;100472.89;1674482;83;21989;-74
2022/11/09 00:43:45;;;;;;;13.08;10.63;;;;;;;8.79;83.23;100481.66;1686619;85;20939;-72
2022/11/09 00:46:11;;;;;;;11.50;8.58;;;;;;;8.79;83.17;100484.34;1686809;84;21066;-74
2022/11/09 00:48:38;;;;;;;13.90;11.70;;;;;;;8.80;83.02;100483.83;1684614;84;20978;-72
2022/11/09 00:51:04;;;;;;;9.43;8.43;;;;;;;8.79;82.88;100481.66;1686707;84;21027;-74
2022/11/09 00:53:31;;;;;;;11.78;10.55;;;;;;;8.81;82.56;100484.14;1659253;85;21102;-76
2022/11/09 00:56:07;;;;;;;13.28;11.12;;;;;;;8.81;82.47;100480.11;1659464;85;21673;-77
2022/11/09 00:58:37;;;;;;;17.80;11.53;;;;;;;8.80;82.42;100479.29;1686731;85;21014;-68
2022/11/09 01:01:11;;;;;;;12.98;9.38;;;;;;;8.77;82.38;100481.59;1694950;83;21547;-67
2022/11/09 01:03:38;;;;;;;15.08;11.10;;;;;;;8.76;82.33;100480.77;1678652;85;21058;-67
2022/11/09 01:06:05;;;;;;;12.37;10.30;;;;;;;8.75;82.37;100481.29;1679335;84;21145;-66
2022/11/09 01:08:34;;;;;;;17.23;11.78;;;;;;;8.77;82.29;100482.94;1694260;84;21546;-67
2022/11/09 01:11:06;;;;;;;18.05;12.78;;;;;;;8.78;82.19;100479.22;1666326;84;21909;-66
2022/11/09 01:13:34;;;;;;;11.22;10.13;;;;;;;8.79;82.07;100478.98;1678159;84;21050;-70
2022/11/09 01:16:13;;;;;;;12.80;10.48;;;;;;;8.79;82.00;100478.98;1655314;85;21011;-69
2022/11/09 01:18:40;;;;;;;14.30;12.25;;;;;;;8.77;81.87;100478.40;1667953;85;21995;-75
2022/11/09 01:21:08;;;;;;;15.80;10.68;;;;;;;8.74;81.87;100486.34;1694116;83;21374;-70
2022/11/09 01:23:35;;;;;;;14.60;13.10;;;;;;;8.72;81.89;100478.23;1666957;84;21500;-68
2022/11/09 01:26:06;;;;;;;12.23;9.48;;;;;;;8.68;81.85;100474.34;1696067;84;21098;-69
2022/11/09 01:28:33;;;;;;;14.53;11.93;;;;;;;8.66;81.91;100481.25;1694061;83;21115;-67
2022/11/09 01:31:05;;;;;;;11.93;10.63;;;;;;;8.64;82.01;100479.81;1694309;83;21047;-66
2022/11/09 01:33:32;;;;;;;17.17;13.48;;;;;;;8.64;82.14;100477.13;1677802;85;21598;-67
2022/11/09 01:36:09;;;;;;;15.45;11.93;;;;;;;8.65;81.97;100476.10;1694253;84;21534;-66
2022/11/09 01:38:36;;;;;;;16.93;13.55;;;;;;;8.61;82.05;100482.43;1694599;84;20966;-67
2022/11/09 01:41:05;;;;;;;18.40;14.05;;;;;;;8.58;82.17;100479.37;1693859;83;21046;-71
2022/11/09 01:43:34;;;;;;;19.75;14.35;;;;;;;8.52;82.30;100490.44;1677475;84;21280;-71
2022/11/09 01:46:09;;;;;;;15.90;12.15;;;;;;;8.44;82.43;100487.20;1694535;84;21050;-71
2022/11/09 01:48:52;;;;;;;20.48;12.93;;;;;;;8.37;82.83;100487.75;1673442;84;21545;-71
2022/11/09 01:51:27;;;;;;;14.55;10.20;;;;;;;8.34;83.18;100486.34;1645949;84;21041;-70
2022/11/09 01:54:01;;;;;;;18.82;12.95;;;;;;;8.38;83.60;100490.22;1692837;84;21078;-71
2022/11/09 01:56:28;;;;;;;17.48;14.15;;;;;;;8.38;83.57;100484.03;1680987;84;21119;-72
2022/11/09 01:59:02;;;;;;;16.25;12.18;;;;;;;8.39;83.82;100490.53;1688057;84;21014;-71
2022/11/09 02:01:30;;;;;;;17.15;13.03;;;;;;;8.45;83.95;100490.16;1685961;84;22304;-71
2022/11/09 02:04:12;;;;;;;17.55;12.33;;;;;;;8.52;83.92;100492.30;1686002;85;21071;-71
2022/11/09 02:06:40;;;;;;;13.83;11.00;;;;;;;8.50;83.46;100492.50;1694268;84;20963;-70
2022/11/09 02:09:13;;;;;;;18.20;13.75;;;;;;;8.47;83.81;100495.63;1677815;85;21378;-70
2022/11/09 02:11:39;;;;;;;15.72;12.93;;;;;;;8.46;84.09;100489.95;1668784;84;21044;-71
2022/11/09 02:14:06;;;;;;;15.38;13.08;;;;;;;8.40;83.57;100485.97;1643628;85;21033;-71
2022/11/09 02:16:33;;;;;;;15.75;13.65;;;;;;;8.36;83.96;100490.94;1649069;84;21680;-71
2022/11/09 02:19:00;;;;;;;13.85;12.10;;;;;;;8.37;84.42;100489.91;1645644;85;21090;-71
2022/11/09 02:21:29;;;;;;;14.18;12.47;;;;;;;8.41;84.43;100492.97;1668978;84;21144;-72
2022/11/09 02:23:56;;;;;;;18.95;14.23;;;;;;;8.46;84.73;100489.95;1700277;83;21594;-71
2022/11/09 02:26:35;;;;;;;16.57;13.03;;;;;;;8.52;84.68;100494.45;1688563;85;21011;-72
2022/11/09 02:29:04;;;;;;;18.85;15.85;;;;;;;8.57;84.49;100493.80;1701235;83;21030;-70
2022/11/09 02:31:35;;;;;;;18.65;14.98;;;;;;;8.56;84.13;100495.66;1676879;83;21090;-71
2022/11/09 02:34:06;;;;;;;21.65;16.42;;;;;;;8.53;84.04;100494.77;1688454;83;21102;-71
2022/11/09 02:36:33;;;;;;;16.67;13.50;;;;;;;8.49;83.99;100493.53;1687930;83;21018;-69
2022/11/09 02:39:00;;;;;;;15.58;13.28;;;;;;;8.46;83.90;100493.97;1675848;84;21015;-72
2022/11/09 02:41:29;;;;;;;19.25;15.68;;;;;;;8.40;83.49;100498.03;1691380;83;21018;-72
2022/11/09 02:43:56;;;;;;;23.30;19.00;;;;;;;8.28;83.06;100493.86;1675820;84;21029;-71
2022/11/09 02:46:25;;;;;;;23.50;14.90;;;;;;;8.11;82.73;100496.20;1701026;84;22064;-72
2022/11/09 02:48:52;;;;;;;27.32;22.90;;;;;;;8.03;83.38;100492.44;1673442;84;21598;-71
2022/11/09 02:51:18;;;;;;;21.80;16.82;;;;;;;7.97;83.44;100497.30;1700800;83;21029;-71
2022/11/09 02:53:45;;;;;;;16.52;14.40;;;;;;;7.93;83.67;100500.62;1699920;84;21644;-72
2022/11/09 02:56:12;;;;;;;17.73;13.95;;;;;;;7.93;84.84;100497.94;1700642;83;21644;-71
2022/11/09 02:58:39;;;;;;;24.00;16.73;;;;;;;7.97;85.54;100495.14;1699198;83;21240;-71
2022/11/09 03:01:05;;;;;;;21.10;14.98;;;;;;;7.97;85.41;100494.62;1676489;82;22002;-72
2022/11/09 03:03:34;;;;;;;17.57;15.45;;;;;;;7.98;85.37;100495.45;1700641;84;20979;-71
2022/11/09 03:06:01;;;;;;;25.23;16.45;;;;;;;7.98;85.60;100493.59;1700747;84;21039;-71
2022/11/09 03:08:28;;;;;;;23.52;15.53;;;;;;;8.01;85.65;100487.80;1676692;84;21101;-70
2022/11/09 03:10:55;;;;;;;20.97;14.95;;;;;;;8.06;85.69;100487.98;1700385;83;21227;-70
2022/11/09 03:13:22;;;;;;;19.73;13.08;;;;;;;8.11;85.57;100489.50;1699919;83;20974;-71
2022/11/09 03:15:50;;;;;;;13.62;11.90;;;;;;;8.13;85.46;100491.46;1700513;84;20986;-71
2022/11/09 03:18:23;;;;;;;15.38;12.65;;;;;;;8.13;85.40;100482.59;1697832;84;21069;-71
2022/11/09 03:20:50;;;;;;;24.37;17.60;;;;;;;8.11;85.27;100486.00;1695640;84;21087;-72
2022/11/09 03:23:17;;;;;;;14.70;13.10;;;;;;;8.06;85.15;100485.81;1721108;82;21079;-72
2022/11/09 03:25:43;;;;;;;21.82;16.07;;;;;;;7.96;84.96;100484.94;1667260;84;21046;-71
2022/11/09 03:28:10;;;;;;;22.45;13.45;;;;;;;7.88;85.38;100481.17;1699939;83;20974;-71
2022/11/09 03:30:40;;;;;;;17.23;13.65;;;;;;;7.87;85.73;100484.87;1678933;84;21030;-72
2022/11/09 03:33:08;;;;;;;19.67;13.60;;;;;;;7.91;86.07;100479.94;1675126;83;21156;-72
2022/11/09 03:35:37;;;;;;;17.95;13.25;;;;;;;7.90;85.94;100485.81;1688262;83;21175;-71
2022/11/09 03:38:05;;;;;;;14.03;12.53;;;;;;;7.83;85.99;100488.50;1700694;83;21119;-71
2022/11/09 03:40:32;;;;;;;16.05;13.90;;;;;;;7.77;86.10;100490.68;1687003;85;21041;-71
2022/11/09 03:42:58;;;;;;;26.65;17.80;;;;;;;7.74;86.25;100491.63;1698825;84;21057;-70
2022/11/09 03:45:27;;;;;;;27.00;18.80;;;;;;;7.73;86.45;100488.64;1693474;83;21053;-71
2022/11/09 03:47:58;;;;;;;24.02;17.60;;;;;;;7.72;86.48;100491.04;1671156;84;21113;-71
2022/11/09 03:50:26;;;;;;;20.25;16.97;;;;;;;7.73;86.56;100493.48;1689654;83;21054;-71
2022/11/09 03:52:53;;;;;;;21.35;18.15;;;;;;;7.72;86.43;100488.36;1692667;84;21009;-75
2022/11/09 03:55:21;;;;;;;26.80;18.40;;;;;;;7.67;86.59;100487.66;1682268;83;20993;-74
2022/11/09 03:57:48;;;;;;;20.35;18.05;;;;;;;7.66;86.71;100490.02;1680954;84;21366;-74
2022/11/09 04:00:19;;;;;;;30.60;18.65;;;;;;;7.60;86.75;100492.20;1692566;83;21132;-75
2022/11/09 04:02:46;;;;;;;20.27;17.00;;;;;;;7.53;86.84;100490.04;1693522;83;21637;-73
2022/11/09 04:05:14;;;;;;;22.58;18.52;;;;;;;7.45;87.05;100494.30;1693224;83;21025;-74
2022/11/09 04:07:47;;;;;;;21.95;16.62;;;;;;;7.38;87.45;100495.66;1637824;83;21085;-75
2022/11/09 04:10:14;;;;;;;18.85;14.15;;;;;;;7.36;87.83;100494.21;1688343;83;21124;-74
2022/11/09 04:12:40;;;;;;;17.32;14.70;;;;;;;7.39;88.21;100497.80;1668717;84;21234;-73
2022/11/09 04:15:10;;;;;;;20.60;17.67;;;;;;;7.39;88.49;100495.95;1696301;84;20976;-74
2022/11/09 04:17:36;;;;;;;23.32;20.62;;;;;;;7.41;88.71;100497.91;1666886;84;21089;-74
2022/11/09 04:20:04;;;;;;;25.25;20.57;;;;;;;7.40;88.58;100496.27;1683467;84;21054;-74
2022/11/09 04:22:31;;;;;;;26.12;20.12;;;;;;;7.36;88.43;100493.70;1655188;85;21140;-74
2022/11/09 04:24:58;;;;;;;30.77;26.15;;;;;;;7.31;88.35;100497.52;1693824;84;21129;-73
2022/11/09 04:27:24;;;;;;;40.78;30.10;;;;;;;7.27;88.46;100504.83;1661866;84;21599;-75
2022/11/09 04:29:51;;;;;;;50.85;37.85;;;;;;;7.22;88.38;100512.15;1672348;84;21063;-71
2022/11/09 04:32:17;;;;;;;57.20;42.50;;;;;;;7.15;88.40;100514.50;1650909;85;20990;-69
2022/11/09 04:34:44;;;;;;;61.58;51.25;;;;;;;7.11;88.50;100511.42;1666683;84;21105;-70
2022/11/09 04:37:10;;;;;;;38.02;30.05;;;;;;;7.08;88.47;100518.55;1666862;86;21143;-70
2022/11/09 04:39:37;;;;;;;33.05;24.92;;;;;;;7.03;88.52;100514.83;1665377;84;20982;-70
2022/11/09 04:42:03;;;;;;;28.27;24.02;;;;;;;6.97;88.64;100518.64;1659673;84;20963;-70
2022/11/09 04:44:31;;;;;;;30.37;24.63;;;;;;;6.93;88.66;100524.61;1639269;85;20979;-69
2022/11/09 04:46:57;;;;;;;26.73;22.85;;;;;;;6.83;88.68;100529.03;1687080;85;21206;-69
2022/11/09 04:49:24;;;;;;;23.30;20.52;;;;;;;6.74;88.82;100523.58;1674998;84;21130;-70
2022/11/09 04:51:50;;;;;;;30.15;21.17;;;;;;;6.67;89.00;100533.93;1664984;84;20954;-69
2022/11/09 04:54:17;;;;;;;27.90;21.55;;;;;;;6.56;89.19;100538.87;1682084;85;21062;-70
2022/11/09 04:56:44;;;;;;;26.17;17.73;;;;;;;6.49;89.48;100535.86;1694778;84;20999;-68
2022/11/09 04:59:11;;;;;;;23.15;19.65;;;;;;;6.45;89.78;100545.31;1690697;83;21030;-68
2022/11/09 05:01:37;;;;;;;24.60;17.75;;;;;;;6.41;90.03;100546.75;1676861;84;21160;-68
2022/11/09 05:04:04;;;;;;;24.52;19.57;;;;;;;6.38;90.21;100555.17;1657548;84;20999;-69
2022/11/09 05:06:30;;;;;;;24.12;20.10;;;;;;;6.34;90.34;100554.73;1665608;84;22042;-69
2022/11/09 05:09:06;;;;;;;24.25;20.02;;;;;;;6.31;90.44;100559.66;1665168;84;21014;-68
2022/11/09 05:11:33;;;;;;;26.55;20.35;;;;;;;6.26;90.52;100556.77;1639608;84;21442;-71
2022/11/09 05:14:01;;;;;;;28.65;21.62;;;;;;;6.20;90.74;100563.73;1663837;84;21916;-71
2022/11/09 05:16:28;;;;;;;28.85;22.13;;;;;;;6.14;90.85;100565.34;1676199;84;21095;-70
2022/11/09 05:18:55;;;;;;;32.70;20.32;;;;;;;6.13;91.02;100566.39;1693762;83;20967;-67
2022/11/09 05:21:22;;;;;;;28.27;20.05;;;;;;;6.11;91.22;100577.77;1693821;83;21097;-67
2022/11/09 05:24:01;;;;;;;23.05;18.10;;;;;;;6.12;91.46;100583.95;1709078;82;21077;-67
2022/11/09 05:26:37;;;;;;;22.58;19.40;;;;;;;6.13;91.56;100582.92;1690074;84;21321;-67
2022/11/09 05:29:10;;;;;;;21.17;18.98;;;;;;;6.14;91.74;100582.70;1698757;82;21057;-67
2022/11/09 05:31:41;;;;;;;21.10;18.00;;;;;;;6.15;91.81;100580.86;1679912;85;21037;-66
2022/11/09 05:34:11;;;;;;;23.70;17.95;;;;;;;6.12;91.73;100580.77;1683113;84;21579;-66
2022/11/09 05:36:38;;;;;;;18.77;16.35;;;;;;;6.10;91.80;100584.64;1689385;84;21553;-68
2022/11/09 05:39:05;;;;;;;19.20;14.87;;;;;;;6.06;91.98;100592.23;1707730;84;22055;-67
2022/11/09 05:41:32;;;;;;;16.00;12.05;;;;;;;6.06;92.29;100595.41;1691250;83;20999;-67
2022/11/09 05:43:59;;;;;;;17.02;15.30;;;;;;;6.08;92.54;100598.72;1707190;82;21641;-67
2022/11/09 05:46:30;;;;;;;16.17;13.53;;;;;;;6.14;92.72;100597.91;1678031;84;21062;-67
2022/11/09 05:48:56;;;;;;;22.20;16.70;;;;;;;6.21;92.68;100601.95;1680060;84;21065;-68
2022/11/09 05:51:22;;;;;;;15.23;13.43;;;;;;;6.28;92.57;100612.17;1708064;84;21205;-67
2022/11/09 05:53:49;;;;;;;13.78;12.45;;;;;;;6.32;92.40;100609.41;1706904;82;20948;-69
2022/11/09 05:56:17;;;;;;;13.85;12.20;;;;;;;6.37;92.17;100606.96;1688745;84;21618;-68
2022/11/09 05:58:44;;;;;;;15.40;12.93;;;;;;;6.40;92.01;100615.39;1687453;84;21027;-68
2022/11/09 06:01:15;;;;;;;15.78;12.65;;;;;;;6.43;91.81;100616.83;1689701;84;21113;-67
2022/11/09 06:03:43;;;;;;;18.32;13.58;;;;;;;6.46;91.65;100617.27;1707422;84;21074;-68
2022/11/09 06:06:13;;;;;;;21.12;12.75;;;;;;;6.50;91.54;100618.52;1657130;83;34643;-67
2022/11/09 06:08:40;;;;;;;16.62;13.22;;;;;;;6.56;91.50;100617.72;1659310;84;20946;-67
2022/11/09 06:11:10;;;;;;;14.47;12.93;;;;;;;6.62;91.42;100616.61;1661184;84;21551;-68
2022/11/09 06:13:37;;;;;;;18.98;14.23;;;;;;;6.70;91.29;100618.58;1665435;85;21419;-68
2022/11/09 06:16:05;;;;;;;15.60;13.38;;;;;;;6.75;91.09;100617.46;1668032;85;21088;-68
2022/11/09 06:18:34;;;;;;;18.37;13.85;;;;;;;6.81;90.96;100617.17;1680427;83;21582;-66
2022/11/09 06:21:03;;;;;;;16.17;12.68;;;;;;;6.84;90.71;100624.27;1695579;83;21109;-69
2022/11/09 06:23:30;;;;;;;20.60;14.25;;;;;;;6.86;90.54;100628.05;1658308;84;21070;-67
2022/11/09 06:26:01;;;;;;;16.50;11.73;;;;;;;6.90;90.40;100628.81;1709352;84;21062;-68
2022/11/09 06:28:28;;;;;;;19.30;13.93;;;;;;;6.94;90.27;100629.22;1676462;83;21872;-68
2022/11/09 06:30:59;;;;;;;15.48;12.13;;;;;;;6.99;90.16;100632.94;1709180;84;20888;-68
2022/11/09 06:33:25;;;;;;;16.67;12.35;;;;;;;7.07;89.95;100629.23;1693636;84;21029;-69
2022/11/09 06:35:53;;;;;;;19.92;10.60;;;;;;;7.15;89.61;100637.56;1680667;83;21037;-67
2022/11/09 06:38:19;;;;;;;16.77;11.48;;;;;;;7.21;89.22;100628.21;1685737;84;20954;-70
2022/11/09 06:40:52;;;;;;;15.75;12.85;;;;;;;7.26;89.03;100624.92;1679612;83;21474;-68
2022/11/09 06:43:20;;;;;;;16.27;14.50;;;;;;;7.30;88.72;100628.31;1699393;83;20998;-68
2022/11/09 06:45:48;;;;;;;19.23;14.18;;;;;;;7.33;88.47;100625.77;1704938;83;20962;-68
2022/11/09 06:48:14;;;;;;;16.17;14.38;;;;;;;7.35;88.38;100631.20;1690332;84;21010;-67
2022/11/09 06:50:41;;;;;;;24.37;14.87;;;;;;;7.38;88.20;100633.48;1672755;83;21113;-68
2022/11/09 06:53:11;;;;;;;20.40;13.35;;;;;;;7.42;88.12;100631.22;1680433;85;21144;-69
2022/11/09 06:55:40;;;;;;;16.25;12.18;;;;;;;7.47;88.05;100631.42;1680479;85;21002;-68
2022/11/09 06:58:09;;;;;;;20.55;13.98;;;;;;;7.53;87.88;100629.23;1678679;85;21034;-69
2022/11/09 07:00:36;;;;;;;16.07;12.63;;;;;;;7.59;87.74;100632.43;1666788;84;21575;-69
2022/11/09 07:03:03;;;;;;;16.25;13.35;;;;;;;7.62;87.50;100633.89;1670399;83;21124;-69
2022/11/09 07:05:31;;;;;;;21.68;15.50;;;;;;;7.65;87.32;100637.48;1680430;85;20997;-71
2022/11/09 07:07:58;;;;;;;19.45;15.58;;;;;;;7.64;87.26;100633.97;1680664;85;21015;-71
2022/11/09 07:10:26;;;;;;;25.95;15.32;;;;;;;7.67;87.36;100635.43;1676946;85;21151;-70
2022/11/09 07:12:52;;;;;;;23.40;17.67;;;;;;;7.70;87.46;100629.64;1680756;83;20914;-68
2022/11/09 07:15:19;;;;;;;27.77;18.30;;;;;;;7.75;87.60;100629.33;1635875;85;21119;-67
2022/11/09 07:17:45;;;;;;;21.77;18.25;;;;;;;7.82;87.78;100630.13;1670975;84;21235;-70
2022/11/09 07:20:14;;;;;;;20.85;17.57;;;;;;;7.91;87.83;100630.76;1697020;83;21779;-70
2022/11/09 07:22:41;;;;;;;25.05;18.15;;;;;;;8.00;87.75;100628.16;1680947;83;21536;-70
2022/11/09 07:25:10;;;;;;;20.05;14.33;;;;;;;8.06;87.79;100626.47;1663053;84;21137;-70
2022/11/09 07:27:37;;;;;;;18.85;15.78;;;;;;;8.14;87.68;100632.95;1671502;84;21133;-70
2022/11/09 07:30:05;;;;;;;22.80;17.05;;;;;;;8.16;87.58;100629.02;1691490;83;21078;-68
2022/11/09 07:32:35;;;;;;;16.30;14.63;;;;;;;8.21;87.53;100634.57;1696077;83;20994;-70
2022/11/09 07:35:03;;;;;;;18.48;15.03;;;;;;;8.23;87.40;100631.17;1671975;84;21153;-67
2022/11/09 07:37:30;;;;;;;18.30;15.43;;;;;;;8.27;87.51;100632.91;1647063;85;21864;-70
2022/11/09 07:39:57;;;;;;;23.38;16.25;;;;;;;8.33;87.49;100638.80;1671720;83;21124;-69
2022/11/09 07:42:24;;;;;;;19.37;14.50;;;;;;;8.41;87.33;100635.88;1647578;84;21376;-68
2022/11/09 07:44:50;;;;;;;14.85;11.97;;;;;;;8.47;87.11;100635.03;1698569;82;21061;-69
2022/11/09 07:47:37;;;;;;;17.07;14.13;;;;;;;8.54;86.89;100633.13;1687983;82;21604;-69
2022/11/09 07:50:06;;;;;;;51.65;14.90;;;;;;;8.54;86.38;100630.95;1676708;84;21637;-67
2022/11/09 07:52:33;;;;;;;13.65;11.78;;;;;;;8.56;86.48;100631.06;1701089;84;21027;-68
2022/11/09 07:54:59;;;;;;;19.57;13.60;;;;;;;8.62;86.45;100634.76;1701208;84;22766;-67
2022/11/09 07:57:26;;;;;;;19.87;13.85;;;;;;;8.60;86.10;100635.48;1692659;83;21641;-67
2022/11/09 07:59:52;;;;;;;13.03;11.63;;;;;;;8.60;86.34;100637.64;1699640;82;21575;-69
2022/11/09 08:02:19;;;;;;;13.45;10.93;;;;;;;8.66;86.31;100631.44;1673185;83;22256;-67
2022/11/09 08:04:46;;;;;;;17.92;12.23;;;;;;;8.73;86.18;100640.25;1699544;83;21161;-67
2022/11/09 08:07:12;;;;;;;16.37;12.50;;;;;;;8.82;85.78;100631.97;1697051;84;21176;-68
2022/11/09 08:09:39;;;;;;;14.33;12.73;;;;;;;8.89;85.58;100635.42;1695087;83;21126;-68
2022/11/09 08:12:06;;;;;;;16.32;13.60;;;;;;;8.96;85.44;100634.88;1696892;82;21077;-67
2022/11/09 08:14:33;;;;;;;17.42;13.00;;;;;;;9.01;85.13;100633.71;1700869;84;21079;-68
2022/11/09 08:17:01;;;;;;;17.42;12.55;;;;;;;9.04;85.07;100632.75;1693252;84;21559;-71
2022/11/09 08:19:28;;;;;;;16.10;12.33;;;;;;;9.08;84.95;100636.64;1681708;84;21138;-69
2022/11/09 08:21:56;;;;;;;16.35;13.58;;;;;;;9.12;84.82;100633.83;1680265;84;21574;-70
2022/11/09 08:24:23;;;;;;;14.10;12.70;;;;;;;9.20;84.72;100628.73;1675858;85;21017;-69
2022/11/09 08:26:50;;;;;;;19.45;11.90;;;;;;;9.30;84.47;100634.44;1652465;85;21041;-72
2022/11/09 08:29:16;;;;;;;14.45;11.60;;;;;;;9.38;84.10;100629.30;1677518;84;21660;-72
2022/11/09 08:31:43;;;;;;;13.28;11.20;;;;;;;9.45;83.84;100634.91;1676144;84;21996;-70
2022/11/09 08:34:17;;;;;;;16.60;11.63;;;;;;;9.52;82.93;100633.52;1676214;85;21610;-72
2022/11/09 08:36:41;;;;;;;16.02;12.25;;;;;;;9.57;82.85;100635.03;1684475;84;21321;-72
2022/11/09 08:39:08;;;;;;;13.65;9.63;;;;;;;9.62;82.40;100627.95;1684083;83;21088;-77
2022/11/09 08:41:36;;;;;;;12.43;9.65;;;;;;;9.72;82.27;100637.37;1703208;83;22296;-75
2022/11/09 08:44:05;;;;;;;12.70;9.20;;;;;;;9.82;81.31;100630.46;1727058;83;21153;-82
2022/11/09 08:46:31;;;;;;;10.45;8.70;;;;;;;9.92;81.03;100628.61;1723712;83;21579;-83
2022/11/09 08:48:58;;;;;;;13.88;8.35;;;;;;;10.02;80.30;100628.38;1727322;83;21106;-73
2022/11/09 08:51:25;;;;;;;9.50;8.40;;;;;;;10.07;79.99;100623.70;1724492;83;21055;-66
2022/11/09 08:53:52;;;;;;;17.30;12.80;;;;;;;10.15;79.62;100626.08;1678956;84;21039;-66
2022/11/09 08:56:19;;;;;;;12.98;8.78;;;;;;;10.20;79.52;100614.16;1675747;85;21158;-69
2022/11/09 08:58:46;;;;;;;12.82;8.15;;;;;;;10.28;79.16;100615.20;1676532;85;20990;-69
2022/11/09 09:01:12;;;;;;;13.08;9.25;;;;;;;10.35;79.11;100613.27;1676157;84;21582;-70
2022/11/09 09:03:39;;;;;;;9.30;8.23;;;;;;;10.44;78.98;100618.62;1677405;85;21509;-70
2022/11/09 09:06:06;;;;;;;13.15;8.33;;;;;;;10.54;77.78;100610.55;1652495;85;21097;-71
2022/11/09 09:08:33;;;;;;;12.95;9.40;;;;;;;10.62;77.25;100607.53;1677456;85;21145;-69
2022/11/09 09:11:04;;;;;;;13.40;9.08;;;;;;;10.72;77.20;100609.97;1693767;84;20950;-72
2022/11/09 09:13:31;;;;;;;11.15;9.28;;;;;;;10.84;76.99;100612.17;1680746;84;21543;-69
2022/11/09 09:15:58;;;;;;;12.50;8.78;;;;;;;10.91;75.41;100617.47;1675697;85;21541;-71
2022/11/09 09:18:24;;;;;;;10.93;8.73;;;;;;;10.94;75.31;100608.92;1661293;85;21088;-70
2022/11/09 09:20:52;;;;;;;10.58;8.90;;;;;;;11.01;74.52;100610.19;1675363;85;21072;-69
2022/11/09 09:23:18;;;;;;;13.08;8.58;;;;;;;11.08;74.82;100614.41;1701260;84;21580;-68
2022/11/09 09:25:45;;;;;;;10.65;8.05;;;;;;;11.13;73.86;100613.19;1704875;84;21028;-69
2022/11/09 09:28:12;;;;;;;9.55;8.40;;;;;;;11.20;73.62;100604.50;1662623;85;21005;-70
2022/11/09 09:30:38;;;;;;;15.98;8.80;;;;;;;11.25;72.91;100599.76;1675098;85;21104;-70
2022/11/09 09:33:05;;;;;;;11.22;8.25;;;;;;;11.31;72.93;100602.87;1672259;85;22000;-69
2022/11/09 09:35:31;;;;;;;10.68;9.53;;;;;;;11.38;73.03;100595.49;1677051;84;21525;-69
2022/11/09 09:37:58;;;;;;;11.65;9.65;;;;;;;11.48;72.79;100597.09;1675623;84;21049;-71
2022/11/09 09:40:37;;;;;;;12.00;9.60;;;;;;;11.56;71.56;100602.12;1676625;85;21019;-72
2022/11/09 09:43:05;;;;;;;12.73;9.35;;;;;;;11.64;71.81;100597.75;1675468;84;21048;-70
2022/11/09 09:45:33;;;;;;;11.90;9.70;;;;;;;11.75;71.83;100592.06;1677299;85;21094;-71
2022/11/09 09:48:28;;;;;;;10.55;9.03;;;;;;;11.83;71.15;100585.00;1676564;84;21039;-70
2022/11/09 09:51:01;;;;;;;11.50;8.35;;;;;;;11.89;70.51;100585.41;1677795;84;21031;-68
2022/11/09 09:53:36;;;;;;;10.43;8.38;;;;;;;11.93;69.28;100581.70;1684751;83;21003;-69
2022/11/09 09:56:26;;;;;;;10.75;7.95;;;;;;;11.98;68.95;100581.28;1672449;85;21544;-75
2022/11/09 09:59:15;;;;;;;8.45;6.08;;;;;;;12.03;68.74;100580.58;1675988;84;21120;-74
2022/11/09 10:01:43;;;;;;;8.83;6.50;;;;;;;12.04;66.87;100579.49;1673913;84;20973;-74
2022/11/09 10:04:23;;;;;;;7.28;5.50;;;;;;;12.06;67.12;100578.73;1698366;83;21559;-73
2022/11/09 10:07:29;;;;;;;6.12;5.53;;;;;;;12.08;66.73;100578.81;1697928;84;21615;-71
2022/11/09 10:10:29;;;;;;;9.93;5.80;;;;;;;12.15;66.31;100580.00;1677366;84;21018;-71
2022/11/09 14:35:30;;;;;;;11.18;10.03;;;;;;;10.72;74.05;100510.94;1758922;78;38340;-68
2022/11/09 14:38:23;;;;;;;14.18;10.72;;;;;;;10.67;74.03;100518.36;1725918;82;20988;-69
2022/11/09 14:41:23;;;;;;;17.50;12.33;;;;;;;10.63;74.21;100526.60;1710272;83;21029;-69
2022/11/09 14:44:26;;;;;;;20.30;10.45;;;;;;;10.61;74.26;100529.20;1732811;82;20955;-69
2022/11/09 14:47:20;;;;;;;15.53;12.05;;;;;;;10.60;74.33;100519.52;1732752;82;21005;-69
2022/11/09 14:50:11;;;;;;;15.98;11.70;;;;;;;10.54;74.40;100525.81;1757323;81;21465;-67
2022/11/09 14:52:55;;;;;;;19.10;11.93;;;;;;;10.47;74.74;100520.52;1716438;82;21018;-67
2022/11/09 14:55:41;;;;;;;20.32;12.53;;;;;;;10.37;75.16;100524.27;1766997;80;21259;-70
2022/11/09 14:58:28;;;;;;;18.48;14.15;;;;;;;10.29;75.37;100521.91;1777370;80;20956;-74
2022/11/09 15:01:23;;;;;;;18.00;12.88;;;;;;;10.22;75.71;100517.95;1732426;82;21058;-75
2022/11/09 15:04:21;;;;;;;16.67;12.47;;;;;;;10.20;75.89;100521.41;1760777;80;21098;-80
2022/11/09 15:07:14;;;;;;;19.80;12.58;;;;;;;10.16;76.05;100525.61;1765035;80;21125;-78
2022/11/09 15:10:06;;;;;;;17.55;12.20;;;;;;;10.11;76.39;100529.46;1761606;80;21209;-80
2022/11/09 15:12:53;;;;;;;14.85;12.80;;;;;;;10.06;76.64;100533.35;1763617;80;20967;-83
2022/11/09 15:15:39;;;;;;;15.55;12.43;;;;;;;10.01;76.95;100534.03;1759523;80;20987;-79
2022/11/09 15:18:28;;;;;;;18.10;13.62;;;;;;;9.96;77.21;100532.54;1737820;81;21042;-79
2022/11/09 15:21:31;;;;;;;18.73;13.35;;;;;;;9.93;77.36;100536.17;1758366;81;21084;-68
2022/11/09 15:24:17;;;;;;;16.48;11.68;;;;;;;9.91;77.40;100530.22;1752655;81;21055;-69
2022/11/09 15:27:06;;;;;;;20.48;13.58;;;;;;;9.87;77.54;100530.38;1760003;80;21520;-68
2022/11/09 15:29:51;;;;;;;25.90;13.40;;;;;;;9.80;77.69;100525.07;1743743;81;21062;-72
2022/11/09 15:32:39;;;;;;;19.17;13.93;;;;;;;9.74;78.01;100523.79;1760047;81;20926;-70
2022/11/09 15:35:24;;;;;;;14.87;13.30;;;;;;;9.71;78.14;100518.87;1725674;81;20959;-73
2022/11/09 15:38:35;;;;;;;19.85;13.38;;;;;;;9.71;78.15;100521.56;1724482;82;21560;-71
2022/11/09 15:41:21;;;;;;;26.57;15.65;;;;;;;9.69;78.33;100519.64;1724354;82;21090;-71
2022/11/09 15:44:07;;;;;;;19.17;15.15;;;;;;;9.62;78.45;100510.30;1708967;82;21553;-71
2022/11/09 15:46:53;;;;;;;20.85;16.37;;;;;;;9.57;78.65;100506.94;1742677;82;21494;-72
2022/11/09 15:49:38;;;;;;;21.77;15.55;;;;;;;9.49;78.99;100509.11;1743751;82;22307;-69
2022/11/09 15:52:24;;;;;;;25.85;18.10;;;;;;;9.42;79.27;100503.80;1697612;82;21157;-68
2022/11/09 15:55:15;;;;;;;25.88;18.02;;;;;;;9.39;79.48;100512.82;1725483;81;21600;-67
2022/11/09 15:58:00;;;;;;;29.75;20.62;;;;;;;9.33;79.76;100509.16;1722354;81;21401;-67